Time;durP1;ratioP1;P1;durP2;ratioP2;P2;SDS_P1;SDS_P2;PMS_P1;PMS_P2;Temp;Humidity;BMP_temperature;BMP_pressure;BME280_temperature;BME280_humidity;BME280_pressure;Samples;Min_cycle;Max_cycle;Signal;HPM_P1;HPM_P2
2022/12/07 00:01:40;;;;;;;3.30;3.00;;;5.70;91.00;;;;;;5005483;28;20294;-71
2022/12/07 00:04:10;;;;;;;5.25;3.15;;;5.70;91.00;;;;;;5015806;28;20351;-70
2022/12/07 00:06:41;;;;;;;5.00;3.25;;;5.80;91.20;;;;;;5008540;28;20213;-71
2022/12/07 00:09:13;;;;;;;4.07;3.67;;;5.80;91.10;;;;;;5017322;28;20365;-70
2022/12/07 00:11:44;;;;;;;3.20;2.80;;;5.70;91.00;;;;;;5008717;28;20547;-70
2022/12/07 00:14:14;;;;;;;4.30;3.58;;;5.70;91.00;;;;;;5014342;28;20666;-71
2022/12/07 00:16:43;;;;;;;6.68;3.10;;;5.80;91.10;;;;;;5030221;28;20241;-70
2022/12/07 00:19:15;;;;;;;4.88;4.47;;;5.80;91.10;;;;;;5007492;28;20229;-70
2022/12/07 00:21:44;;;;;;;5.78;5.10;;;5.80;91.10;;;;;;5022366;28;20213;-69
2022/12/07 00:24:13;;;;;;;5.22;3.90;;;5.80;91.20;;;;;;5013298;28;20213;-70
2022/12/07 00:26:44;;;;;;;4.65;3.22;;;5.80;91.20;;;;;;5020453;28;20205;-70
2022/12/07 00:29:16;;;;;;;4.13;3.72;;;5.80;91.10;;;;;;5007809;28;20229;-69
2022/12/07 00:31:44;;;;;;;4.07;3.30;;;5.80;91.20;;;;;;5009753;28;20255;-72
2022/12/07 00:34:15;;;;;;;5.05;3.50;;;5.80;91.20;;;;;;5008268;28;20230;-70
2022/12/07 00:36:44;;;;;;;3.38;2.72;;;5.80;91.20;;;;;;5019457;28;20723;-70
2022/12/07 00:39:12;;;;;;;4.90;3.35;;;5.70;91.10;;;;;;5009202;28;20253;-69
2022/12/07 00:41:41;;;;;;;5.78;4.25;;;5.80;91.10;;;;;;5007766;28;20221;-70
2022/12/07 00:44:11;;;;;;;4.47;3.75;;;5.70;91.00;;;;;;5006632;28;20689;-71
2022/12/07 00:46:39;;;;;;;4.60;4.20;;;5.80;91.10;;;;;;5005251;28;20229;-70
2022/12/07 00:49:07;;;;;;;4.82;4.43;;;5.80;91.20;;;;;;5029072;28;20225;-71
2022/12/07 00:51:36;;;;;;;5.68;3.95;;;5.80;91.10;;;;;;5008009;28;20200;-70
2022/12/07 00:54:05;;;;;;;4.55;4.00;;;5.80;91.20;;;;;;5012964;28;20616;-70
2022/12/07 00:56:34;;;;;;;4.00;3.55;;;5.80;91.20;;;;;;5024491;28;20656;-70
2022/12/07 00:59:04;;;;;;;5.72;4.00;;;5.80;91.10;;;;;;4998353;28;20630;-70
2022/12/07 01:01:36;;;;;;;3.65;3.22;;;5.80;91.10;;;;;;5023099;28;20210;-72
2022/12/07 01:04:05;;;;;;;4.80;4.05;;;5.80;91.10;;;;;;5004940;28;20217;-70
2022/12/07 01:06:34;;;;;;;5.82;4.30;;;5.80;91.10;;;;;;5015088;28;20300;-71
2022/12/07 01:09:03;;;;;;;7.55;5.50;;;5.80;91.10;;;;;;5006474;28;20221;-70
2022/12/07 01:11:32;;;;;;;4.90;3.80;;;5.80;91.10;;;;;;5006636;28;20217;-70
2022/12/07 01:14:01;;;;;;;5.28;3.75;;;5.80;91.10;;;;;;5007390;28;20249;-70
2022/12/07 01:16:31;;;;;;;4.65;4.25;;;5.80;91.10;;;;;;5007012;28;20226;-70
2022/12/07 01:19:04;;;;;;;3.65;3.35;;;5.80;91.10;;;;;;5009674;28;20223;-70
2022/12/07 01:21:37;;;;;;;4.40;3.55;;;5.80;91.00;;;;;;5024970;28;20211;-69
2022/12/07 01:24:07;;;;;;;6.88;4.15;;;5.80;91.10;;;;;;5007394;28;20221;-71
2022/12/07 01:26:36;;;;;;;4.43;3.80;;;5.80;91.60;;;;;;5008699;28;20213;-69
2022/12/07 01:29:04;;;;;;;8.20;5.40;;;5.80;91.10;;;;;;5016906;28;20229;-71
2022/12/07 01:31:33;;;;;;;4.88;4.30;;;5.80;91.20;;;;;;5007405;28;20577;-70
2022/12/07 01:34:03;;;;;;;4.72;3.50;;;5.80;91.10;;;;;;5027601;28;20317;-70
2022/12/07 01:36:33;;;;;;;5.43;4.10;;;5.80;91.10;;;;;;5005954;28;20218;-70
2022/12/07 01:39:04;;;;;;;5.00;4.07;;;5.80;91.10;;;;;;5003943;28;20225;-70
2022/12/07 01:41:35;;;;;;;7.70;3.63;;;5.80;91.10;;;;;;4989460;28;21116;-71
2022/12/07 01:44:20;;;;;;;4.90;4.50;;;5.80;91.10;;;;;;4991070;28;20597;-70
2022/12/07 01:46:50;;;;;;;6.22;4.25;;;5.80;91.10;;;;;;5004079;28;20622;-71
2022/12/07 01:49:29;;;;;;;4.15;3.72;;;5.80;91.20;;;;;;5004895;28;20228;-70
2022/12/07 01:52:04;;;;;;;5.28;3.95;;;5.80;91.10;;;;;;5015234;28;20600;-71
2022/12/07 01:54:35;;;;;;;5.90;3.38;;;5.80;91.10;;;;;;5003235;28;20708;-70
2022/12/07 01:57:05;;;;;;;5.05;4.55;;;5.80;91.10;;;;;;5014156;28;20224;-70
2022/12/07 01:59:35;;;;;;;5.45;4.05;;;5.80;91.20;;;;;;5007107;28;20308;-70
2022/12/07 02:02:07;;;;;;;6.07;4.13;;;5.80;91.20;;;;;;5003638;28;20201;-70
2022/12/07 02:04:37;;;;;;;4.32;3.90;;;5.80;91.20;;;;;;5016767;28;20564;-72
2022/12/07 02:07:07;;;;;;;3.75;3.45;;;5.80;91.20;;;;;;5005681;28;20300;-70
2022/12/07 02:09:38;;;;;;;4.85;4.05;;;5.80;91.10;;;;;;5023673;28;20193;-72
2022/12/07 02:12:07;;;;;;;5.55;4.28;;;5.80;91.10;;;;;;5015645;28;20217;-70
2022/12/07 02:14:35;;;;;;;4.00;3.60;;;5.80;91.10;;;;;;5006244;28;20694;-69
2022/12/07 02:17:12;;;;;;;5.35;4.60;;;5.80;91.00;;;;;;5015047;28;20228;-70
2022/12/07 02:20:18;;;;;;;4.68;4.22;;;5.80;91.10;;;;;;5001438;28;20568;-70
2022/12/07 02:23:22;;;;;;;4.20;3.80;;;5.80;91.00;;;;;;4998430;28;20241;-70
2022/12/07 02:26:16;;;;;;;4.35;3.63;;;5.80;91.10;;;;;;4986802;28;20186;-70
2022/12/07 02:29:10;;;;;;;5.53;3.42;;;5.80;91.10;;;;;;5002297;28;20708;-70
2022/12/07 02:31:44;;;;;;;4.88;3.65;;;5.80;91.10;;;;;;5006593;28;20228;-71
2022/12/07 02:34:20;;;;;;;5.90;4.30;;;5.80;91.00;;;;;;5012872;28;20224;-70
2022/12/07 02:36:54;;;;;;;5.63;5.05;;;5.80;91.10;;;;;;5012514;28;20221;-70
2022/12/07 02:39:32;;;;;;;4.93;4.20;;;5.80;91.10;;;;;;5008631;28;20275;-70
2022/12/07 02:42:04;;;;;;;4.90;3.85;;;5.80;91.10;;;;;;5029746;28;20197;-69
2022/12/07 02:44:34;;;;;;;4.45;4.05;;;5.80;91.10;;;;;;5010300;28;20316;-69
2022/12/07 02:47:05;;;;;;;5.00;3.70;;;5.80;91.60;;;;;;5025691;28;20520;-70
2022/12/07 02:49:34;;;;;;;4.28;3.80;;;5.80;91.10;;;;;;5019136;28;20186;-70
2022/12/07 02:52:03;;;;;;;4.57;4.18;;;5.80;91.10;;;;;;5023991;28;20559;-71
2022/12/07 02:54:31;;;;;;;5.18;3.83;;;5.80;91.20;;;;;;5022210;28;20198;-70
2022/12/07 02:57:11;;;;;;;5.45;3.97;;;5.80;91.20;;;;;;5008757;28;20222;-72
2022/12/07 02:59:54;;;;;;;3.45;3.15;;;5.80;91.10;;;;;;5006778;28;20284;-70
2022/12/07 03:02:29;;;;;;;4.15;3.22;;;5.80;91.00;;;;;;5010141;28;20209;-71
2022/12/07 03:05:14;;;;;;;5.80;4.80;;;5.80;91.10;;;;;;5014450;28;20237;-69
2022/12/07 03:07:52;;;;;;;5.55;4.68;;;5.80;91.20;;;;;;5006761;28;20241;-71
2022/12/07 03:10:29;;;;;;;4.50;3.83;;;5.80;91.10;;;;;;5020067;28;20216;-71
2022/12/07 03:13:06;;;;;;;3.95;3.53;;;5.80;91.10;;;;;;5020412;28;20569;-71
2022/12/07 03:15:44;;;;;;;4.35;3.95;;;5.80;91.10;;;;;;5013589;28;20211;-70
2022/12/07 03:18:15;;;;;;;4.18;3.78;;;5.80;91.10;;;;;;5013687;28;20231;-70
2022/12/07 03:20:47;;;;;;;3.72;3.30;;;5.80;91.00;;;;;;5009363;28;20196;-70
2022/12/07 03:23:19;;;;;;;4.40;3.75;;;5.80;91.00;;;;;;5009737;28;20217;-71
2022/12/07 03:25:53;;;;;;;4.82;4.30;;;5.80;91.00;;;;;;5012001;28;20187;-70
2022/12/07 03:28:32;;;;;;;5.43;4.65;;;5.80;91.10;;;;;;5016580;28;20640;-70
2022/12/07 03:31:09;;;;;;;4.18;3.47;;;5.80;91.10;;;;;;5007305;28;20277;-71
2022/12/07 03:33:45;;;;;;;4.53;3.85;;;5.80;91.00;;;;;;5008505;28;20225;-70
2022/12/07 03:36:21;;;;;;;5.40;3.90;;;5.80;91.00;;;;;;5013565;28;20221;-70
2022/12/07 03:38:53;;;;;;;3.90;3.53;;;5.80;91.10;;;;;;5006534;28;20268;-70
2022/12/07 03:41:25;;;;;;;6.20;5.07;;;5.80;91.10;;;;;;5011970;28;20347;-70
2022/12/07 03:43:56;;;;;;;5.80;4.75;;;5.80;91.00;;;;;;5024327;28;20899;-71
2022/12/07 03:46:36;;;;;;;5.57;4.95;;;5.80;91.20;;;;;;5008907;28;20281;-72
2022/12/07 03:49:11;;;;;;;4.47;3.72;;;5.80;91.10;;;;;;5010961;28;20694;-71
2022/12/07 03:51:46;;;;;;;8.32;4.68;;;5.80;91.10;;;;;;5004779;28;20617;-70
2022/12/07 03:54:19;;;;;;;5.38;4.45;;;5.80;91.20;;;;;;5003269;28;20244;-71
2022/12/07 03:56:49;;;;;;;4.93;3.97;;;5.80;91.10;;;;;;5007814;28;20644;-70
2022/12/07 03:59:19;;;;;;;4.32;3.92;;;5.80;91.00;;;;;;5007185;28;20309;-71
2022/12/07 04:01:54;;;;;;;5.85;4.85;;;5.80;91.00;;;;;;5011606;28;20213;-70
2022/12/07 04:04:24;;;;;;;6.05;3.50;;;5.80;91.00;;;;;;5014947;28;20217;-71
2022/12/07 04:06:52;;;;;;;5.95;5.00;;;5.80;91.00;;;;;;5017154;28;20233;-72
2022/12/07 04:09:20;;;;;;;4.45;4.03;;;5.80;91.10;;;;;;5008049;28;20232;-71
2022/12/07 04:11:49;;;;;;;5.35;4.03;;;5.80;91.00;;;;;;5021553;28;20223;-71
2022/12/07 04:14:20;;;;;;;5.43;3.75;;;5.80;91.10;;;;;;5007283;28;20226;-71
2022/12/07 04:16:50;;;;;;;5.97;3.78;;;5.80;91.00;;;;;;5015524;28;20594;-71
2022/12/07 04:19:23;;;;;;;4.10;3.47;;;5.80;91.00;;;;;;5017036;28;20264;-71
2022/12/07 04:21:52;;;;;;;4.97;4.13;;;5.80;91.00;;;;;;5007655;28;20202;-70
2022/12/07 04:24:21;;;;;;;3.60;3.30;;;5.80;91.00;;;;;;5006812;28;20317;-73
2022/12/07 04:26:49;;;;;;;4.68;3.90;;;5.80;91.00;;;;;;5030945;28;20621;-70
2022/12/07 04:29:18;;;;;;;3.88;3.38;;;5.80;91.00;;;;;;5009496;28;20217;-72
2022/12/07 04:31:47;;;;;;;4.45;3.55;;;5.80;91.00;;;;;;5006065;28;20600;-70
2022/12/07 04:34:17;;;;;;;7.47;3.88;;;5.80;91.00;;;;;;5014190;28;20218;-71
2022/12/07 04:36:48;;;;;;;4.55;3.72;;;5.80;91.00;;;;;;5006803;28;20220;-70
2022/12/07 04:39:21;;;;;;;4.65;3.63;;;5.80;91.00;;;;;;5006931;28;20686;-70
2022/12/07 04:41:49;;;;;;;4.32;3.53;;;5.80;91.00;;;;;;5023691;28;20205;-70
2022/12/07 04:44:19;;;;;;;4.70;4.05;;;5.80;91.00;;;;;;5005792;28;20300;-69
2022/12/07 04:46:48;;;;;;;4.10;3.63;;;5.80;91.00;;;;;;5005625;28;20209;-70
2022/12/07 04:49:17;;;;;;;5.30;4.00;;;5.80;91.00;;;;;;5006719;28;20228;-71
2022/12/07 04:51:47;;;;;;;5.97;4.53;;;5.80;91.00;;;;;;5016397;28;20569;-70
2022/12/07 04:54:17;;;;;;;4.57;3.53;;;5.80;91.00;;;;;;5004285;28;20699;-70
2022/12/07 04:56:45;;;;;;;5.60;3.50;;;5.80;91.00;;;;;;5006170;28;20221;-71
2022/12/07 04:59:15;;;;;;;6.57;4.53;;;5.80;90.90;;;;;;5004247;28;20217;-70
2022/12/07 05:01:44;;;;;;;4.15;3.35;;;5.80;91.00;;;;;;5015340;28;20194;-71
2022/12/07 05:04:13;;;;;;;4.93;3.90;;;5.80;91.00;;;;;;5025664;28;20218;-70
2022/12/07 05:06:41;;;;;;;3.97;3.58;;;5.80;91.00;;;;;;5019421;28;20288;-71
2022/12/07 05:09:11;;;;;;;5.88;4.10;;;5.80;90.90;;;;;;5004148;28;20288;-70
2022/12/07 05:11:40;;;;;;;5.50;4.25;;;5.80;91.00;;;;;;5006027;28;20689;-70
2022/12/07 05:14:13;;;;;;;4.07;3.67;;;5.80;91.10;;;;;;5013978;28;20279;-70
2022/12/07 05:16:43;;;;;;;4.43;4.03;;;5.80;91.00;;;;;;5009120;28;20612;-70
2022/12/07 05:19:11;;;;;;;5.97;3.38;;;5.80;91.00;;;;;;4998034;28;20229;-71
2022/12/07 05:21:40;;;;;;;4.55;3.90;;;5.80;91.00;;;;;;5024990;28;20181;-70
2022/12/07 05:24:13;;;;;;;4.65;3.72;;;5.80;91.00;;;;;;5026489;28;20220;-70
2022/12/07 05:26:42;;;;;;;3.83;3.25;;;5.80;91.00;;;;;;5004316;28;20210;-71
2022/12/07 05:29:12;;;;;;;4.97;3.45;;;5.80;91.00;;;;;;5021068;28;20240;-70
2022/12/07 05:31:41;;;;;;;4.13;3.72;;;5.80;91.00;;;;;;5013638;28;20193;-70
2022/12/07 05:34:09;;;;;;;4.32;3.65;;;5.80;91.00;;;;;;5019134;28;20217;-71
2022/12/07 05:36:38;;;;;;;5.20;4.00;;;5.80;91.00;;;;;;5005323;28;20510;-69
2022/12/07 05:39:07;;;;;;;4.85;3.80;;;5.80;91.00;;;;;;5005231;28;20654;-70
2022/12/07 05:44:22;;;;;;;5.45;4.40;;;5.80;91.10;;;;;;5010817;28;20218;-70
2022/12/07 05:46:51;;;;;;;3.80;3.28;;;5.80;91.00;;;;;;5010939;28;20224;-71
2022/12/07 05:49:19;;;;;;;4.05;3.20;;;5.80;91.00;;;;;;5010269;28;20530;-71
2022/12/07 05:51:48;;;;;;;4.50;3.60;;;5.80;91.00;;;;;;5000987;28;20294;-72
2022/12/07 05:54:16;;;;;;;4.80;4.35;;;5.80;91.00;;;;;;5005132;28;20228;-71
2022/12/07 05:56:46;;;;;;;3.75;3.45;;;5.80;91.00;;;;;;5004828;28;20248;-70
2022/12/07 05:59:22;;;;;;;3.45;3.15;;;5.80;91.00;;;;;;5008406;28;20214;-71
2022/12/07 06:01:50;;;;;;;4.05;3.00;;;5.80;91.00;;;;;;5010134;28;20219;-71
2022/12/07 06:04:20;;;;;;;3.53;2.95;;;5.80;90.90;;;;;;5024402;28;20245;-71
2022/12/07 06:06:48;;;;;;;5.57;3.35;;;5.80;90.90;;;;;;5015236;28;20217;-70
2022/12/07 06:09:18;;;;;;;4.20;3.80;;;5.80;90.90;;;;;;5003487;28;20214;-71
2022/12/07 06:14:33;;;;;;;3.47;3.17;;;5.80;91.00;;;;;;5023218;28;20229;-70
2022/12/07 06:17:02;;;;;;;4.47;3.92;;;5.80;90.90;;;;;;5006972;28;20217;-70
2022/12/07 06:19:31;;;;;;;4.30;3.78;;;5.80;91.00;;;;;;5005168;28;20640;-71
2022/12/07 06:22:00;;;;;;;4.75;3.53;;;5.80;91.00;;;;;;5005896;28;20213;-71
2022/12/07 06:24:28;;;;;;;4.15;3.35;;;5.80;91.00;;;;;;5006102;28;20638;-70
2022/12/07 06:26:58;;;;;;;3.97;3.20;;;5.90;91.00;;;;;;5011369;28;20244;-70
2022/12/07 06:29:26;;;;;;;8.20;5.10;;;5.80;90.90;;;;;;5014543;28;20299;-70
2022/12/07 06:31:55;;;;;;;4.15;3.30;;;5.80;91.00;;;;;;5018720;28;20218;-71
2022/12/07 06:34:24;;;;;;;5.10;3.95;;;5.80;90.90;;;;;;5003932;28;20252;-71
2022/12/07 06:36:54;;;;;;;3.72;3.38;;;5.80;91.00;;;;;;5005706;28;20361;-70
2022/12/07 06:39:25;;;;;;;6.22;3.20;;;5.80;90.90;;;;;;5003869;28;20435;-70
2022/12/07 06:41:53;;;;;;;6.18;3.60;;;5.80;90.90;;;;;;5022415;28;20694;-71
2022/12/07 06:44:24;;;;;;;3.53;2.75;;;5.80;90.90;;;;;;5005515;28;20234;-71
2022/12/07 06:46:53;;;;;;;3.88;3.10;;;5.80;90.90;;;;;;5003260;28;20781;-70
2022/12/07 06:49:42;;;;;;;3.58;3.10;;;5.80;90.90;;;;;;5002973;28;20225;-70
2022/12/07 06:52:10;;;;;;;3.38;3.00;;;5.80;90.90;;;;;;5007154;28;20620;-71
2022/12/07 06:54:39;;;;;;;3.28;2.95;;;5.80;90.90;;;;;;5007712;28;20206;-70
2022/12/07 06:57:07;;;;;;;5.07;3.35;;;5.80;90.90;;;;;;5017500;28;20744;-70
2022/12/07 06:59:37;;;;;;;3.95;2.50;;;5.80;90.90;;;;;;5003637;28;20197;-70
2022/12/07 07:02:05;;;;;;;4.35;2.92;;;5.80;90.90;;;;;;4999633;28;20204;-70
2022/12/07 07:04:34;;;;;;;3.92;3.58;;;5.80;90.90;;;;;;5022041;28;20182;-70
2022/12/07 07:07:02;;;;;;;3.83;3.10;;;5.80;90.90;;;;;;5005554;28;20226;-71
2022/12/07 07:09:31;;;;;;;4.65;3.45;;;5.80;90.90;;;;;;5006478;28;20205;-71
2022/12/07 07:11:59;;;;;;;5.22;3.13;;;5.80;90.90;;;;;;5015535;28;20203;-70
2022/12/07 07:14:27;;;;;;;4.95;3.58;;;5.80;90.90;;;;;;5016016;28;20206;-70
2022/12/07 07:16:58;;;;;;;2.90;2.40;;;5.80;90.90;;;;;;5007582;28;20289;-71
2022/12/07 07:19:26;;;;;;;3.15;2.65;;;5.80;90.90;;;;;;5007033;28;20300;-69
2022/12/07 07:21:55;;;;;;;3.70;3.33;;;5.80;90.90;;;;;;5013788;28;20198;-71
2022/12/07 07:24:23;;;;;;;3.80;2.55;;;5.80;90.90;;;;;;5007665;28;20224;-70
2022/12/07 07:26:52;;;;;;;4.53;3.60;;;5.80;90.90;;;;;;5008700;28;20595;-70
2022/12/07 07:29:20;;;;;;;2.63;2.42;;;5.80;90.90;;;;;;5007378;28;20228;-71
2022/12/07 07:31:49;;;;;;;4.97;3.00;;;5.80;90.90;;;;;;5007389;28;20202;-70
2022/12/07 07:34:19;;;;;;;4.57;3.75;;;5.80;90.90;;;;;;5015285;28;20676;-70
2022/12/07 07:36:47;;;;;;;4.07;3.25;;;5.80;90.90;;;;;;5018547;28;20214;-71
2022/12/07 07:39:16;;;;;;;5.32;3.75;;;5.80;90.90;;;;;;5012686;28;20670;-70
2022/12/07 07:41:44;;;;;;;3.95;3.35;;;5.80;90.90;;;;;;5019394;28;20179;-71
2022/12/07 07:44:15;;;;;;;4.28;3.88;;;5.80;91.40;;;;;;5006559;28;20690;-70
2022/12/07 07:46:44;;;;;;;3.55;2.90;;;5.80;90.90;;;;;;5006651;28;20226;-71
2022/12/07 07:49:12;;;;;;;3.22;3.03;;;5.80;90.90;;;;;;5010207;28;20210;-70
2022/12/07 07:51:42;;;;;;;3.45;3.15;;;5.80;90.90;;;;;;5004623;28;20185;-69
2022/12/07 07:54:11;;;;;;;4.65;3.20;;;5.80;90.80;;;;;;5014035;28;20249;-70
2022/12/07 07:56:39;;;;;;;4.25;3.40;;;5.90;90.90;;;;;;5016862;28;20222;-70
2022/12/07 07:59:08;;;;;;;4.15;2.65;;;5.80;91.00;;;;;;5015365;28;20332;-69
2022/12/07 08:01:36;;;;;;;7.40;4.50;;;5.90;90.90;;;;;;5016398;28;20232;-71
2022/12/07 08:04:05;;;;;;;3.85;3.30;;;5.80;91.00;;;;;;5008598;28;20218;-70
2022/12/07 08:06:34;;;;;;;3.90;3.10;;;5.90;91.00;;;;;;5007922;28;20593;-70
2022/12/07 08:09:05;;;;;;;2.95;2.75;;;5.80;91.00;;;;;;5007083;28;20222;-71
2022/12/07 08:11:34;;;;;;;2.60;2.40;;;5.80;90.90;;;;;;5016920;28;20190;-70
2022/12/07 08:14:03;;;;;;;3.72;2.53;;;5.90;90.90;;;;;;5017351;28;20237;-69
2022/12/07 08:16:50;;;;;;;5.30;3.78;;;5.80;90.90;;;;;;5014483;28;20270;-70
2022/12/07 08:19:38;;;;;;;2.97;2.65;;;5.80;90.90;;;;;;5010256;28;20274;-70
2022/12/07 08:22:06;;;;;;;4.10;3.65;;;5.80;90.90;;;;;;5017713;28;20213;-71
2022/12/07 08:24:38;;;;;;;4.10;3.05;;;5.80;90.90;;;;;;5009632;28;20185;-71
2022/12/07 08:27:06;;;;;;;3.85;3.15;;;5.90;90.90;;;;;;5010071;28;20309;-70
2022/12/07 08:29:35;;;;;;;4.05;3.10;;;5.90;90.90;;;;;;5005510;28;20194;-69
2022/12/07 08:32:04;;;;;;;3.45;3.15;;;5.80;90.90;;;;;;5019040;28;20201;-71
2022/12/07 08:34:36;;;;;;;4.32;3.38;;;5.90;90.90;;;;;;5012218;28;20300;-71
2022/12/07 08:37:05;;;;;;;4.93;2.95;;;5.80;90.90;;;;;;5007843;28;20511;-72
2022/12/07 08:39:33;;;;;;;4.90;3.30;;;5.90;90.90;;;;;;5024322;28;20635;-71
2022/12/07 08:42:03;;;;;;;4.00;3.35;;;5.90;90.90;;;;;;5015177;28;20226;-71
2022/12/07 08:44:32;;;;;;;3.80;3.38;;;5.90;90.90;;;;;;5005761;28;20248;-71
2022/12/07 08:47:10;;;;;;;3.38;2.97;;;5.90;91.00;;;;;;5007919;28;20304;-71
2022/12/07 08:49:41;;;;;;;3.92;3.40;;;5.90;90.90;;;;;;5033226;28;20185;-70
2022/12/07 08:52:10;;;;;;;3.35;3.05;;;5.90;91.00;;;;;;5030423;28;20221;-70
2022/12/07 08:54:40;;;;;;;6.28;4.35;;;5.90;91.00;;;;;;5025883;28;20693;-71
2022/12/07 08:57:11;;;;;;;2.92;2.70;;;5.90;90.90;;;;;;5010283;28;20258;-70
2022/12/07 08:59:40;;;;;;;3.08;2.75;;;5.90;91.00;;;;;;5005181;28;20210;-71
2022/12/07 09:02:09;;;;;;;3.58;3.15;;;5.90;91.00;;;;;;5005281;28;20202;-73
2022/12/07 09:04:38;;;;;;;4.50;3.35;;;5.90;91.00;;;;;;5010001;28;20742;-74
2022/12/07 09:07:07;;;;;;;5.18;3.08;;;5.90;90.90;;;;;;5008423;28;20222;-75
2022/12/07 09:09:36;;;;;;;3.50;3.05;;;5.90;90.90;;;;;;4998516;28;20194;-73
2022/12/07 09:12:05;;;;;;;3.38;3.05;;;5.90;90.90;;;;;;5014415;28;20207;-75
2022/12/07 09:14:34;;;;;;;2.80;2.60;;;5.90;90.90;;;;;;5011255;28;21163;-74
2022/12/07 09:17:07;;;;;;;4.50;4.07;;;5.90;90.90;;;;;;5004846;28;20248;-73
2022/12/07 09:19:35;;;;;;;6.00;3.45;;;5.90;91.00;;;;;;5014763;28;20650;-75
2022/12/07 09:22:05;;;;;;;3.45;3.05;;;5.90;91.10;;;;;;5023404;28;20229;-74
2022/12/07 09:24:34;;;;;;;4.97;3.40;;;5.90;91.00;;;;;;5024892;28;20667;-73
2022/12/07 09:27:02;;;;;;;3.88;2.72;;;5.90;91.00;;;;;;5006046;28;20224;-73
2022/12/07 09:29:31;;;;;;;3.40;3.00;;;5.90;91.00;;;;;;5007621;28;20688;-73
2022/12/07 09:32:01;;;;;;;4.80;3.58;;;5.90;91.00;;;;;;4990161;28;20194;-73
2022/12/07 09:34:37;;;;;;;3.80;3.00;;;5.90;91.00;;;;;;5006807;28;20658;-73
2022/12/07 09:37:06;;;;;;;3.70;3.40;;;5.90;90.90;;;;;;5030380;28;20712;-74
2022/12/07 09:39:35;;;;;;;3.30;2.97;;;5.90;91.00;;;;;;5006487;28;20574;-73
2022/12/07 09:42:05;;;;;;;3.10;2.80;;;5.90;90.90;;;;;;5004338;28;20198;-74
2022/12/07 09:44:35;;;;;;;4.18;3.70;;;5.90;90.90;;;;;;5004993;28;20198;-73
2022/12/07 09:47:04;;;;;;;4.40;3.50;;;5.90;91.40;;;;;;5001291;28;20308;-70
2022/12/07 09:49:33;;;;;;;3.33;3.03;;;5.90;90.90;;;;;;5012986;28;21229;-70
2022/12/07 09:52:04;;;;;;;5.22;3.88;;;5.90;91.00;;;;;;5015017;28;20186;-72
2022/12/07 09:54:36;;;;;;;3.42;2.80;;;5.90;91.10;;;;;;5006331;28;20760;-71
2022/12/07 09:57:05;;;;;;;4.72;3.50;;;5.90;91.00;;;;;;5005470;28;20222;-70
2022/12/07 09:59:33;;;;;;;4.32;2.90;;;6.00;91.00;;;;;;5022125;28;20327;-70
2022/12/07 10:02:27;;;;;;;3.67;3.00;;;5.90;91.00;;;;;;5009474;28;20225;-70
2022/12/07 10:04:58;;;;;;;2.75;2.50;;;6.00;91.10;;;;;;5004333;28;20248;-70
2022/12/07 10:07:26;;;;;;;4.10;3.00;;;5.90;91.50;;;;;;5006145;28;20389;-70
2022/12/07 10:09:55;;;;;;;4.50;3.35;;;6.00;91.00;;;;;;5001378;28;20193;-70
2022/12/07 10:12:23;;;;;;;3.47;2.80;;;6.00;91.00;;;;;;5006404;28;20290;-69
2022/12/07 10:14:57;;;;;;;4.72;2.90;;;5.90;90.90;;;;;;5005790;28;20190;-71
2022/12/07 10:17:40;;;;;;;4.18;3.63;;;5.90;90.90;;;;;;5008440;28;20527;-71
2022/12/07 10:24:54;;;;;;;3.42;2.67;;;6.00;91.00;;;;;;5002033;28;20232;-73
2022/12/07 10:27:30;;;;;;;3.50;3.20;;;5.90;90.90;;;;;;5005431;28;20225;-73
2022/12/07 10:29:59;;;;;;;4.35;2.45;;;5.90;91.00;;;;;;5021021;28;20685;-73
2022/12/07 10:32:34;;;;;;;3.05;2.20;;;5.90;91.00;;;;;;5011321;28;20213;-74
2022/12/07 10:35:23;;;;;;;2.80;2.45;;;5.90;90.90;;;;;;5019404;28;20198;-74
2022/12/07 11:02:39;;;;;;;4.40;3.03;;;6.00;90.90;;;;;;4974411;28;20234;-73
2022/12/07 11:10:02;;;;;;;4.50;3.90;;;5.90;91.00;;;;;;5005727;28;20264;-70
2022/12/07 11:13:01;;;;;;;3.25;2.95;;;5.90;91.00;;;;;;5009657;28;20198;-70
2022/12/07 11:15:47;;;;;;;3.90;3.13;;;5.90;91.00;;;;;;5008170;28;20817;-69
2022/12/07 11:18:28;;;;;;;5.60;3.28;;;5.90;91.00;;;;;;5008280;28;20769;-69
2022/12/07 11:21:11;;;;;;;5.38;2.65;;;6.00;91.10;;;;;;5025187;28;20862;-70
2022/12/07 11:24:28;;;;;;;3.63;2.55;;;5.90;91.00;;;;;;5004395;28;20220;-69
2022/12/07 11:27:42;;;;;;;2.92;2.67;;;6.00;91.00;;;;;;5010286;28;20481;-69
2022/12/07 11:30:22;;;;;;;3.88;2.20;;;5.90;91.00;;;;;;5011355;28;20629;-69
2022/12/07 11:33:18;;;;;;;4.95;3.15;;;6.00;91.10;;;;;;4984860;28;20237;-68
2022/12/07 11:36:06;;;;;;;6.28;3.60;;;6.00;91.20;;;;;;5009454;28;20190;-70
2022/12/07 11:38:52;;;;;;;4.70;2.85;;;6.00;91.10;;;;;;5001266;28;20246;-70
2022/12/07 12:11:33;;;;;;;4.35;3.20;;;6.00;91.40;;;;;;5021687;28;20188;-74
2022/12/07 12:14:30;;;;;;;4.93;3.58;;;6.00;91.20;;;;;;5011792;28;20290;-73
2022/12/07 12:17:27;;;;;;;4.40;3.08;;;6.00;91.20;;;;;;5004396;28;20213;-73
2022/12/07 12:20:07;;;;;;;4.75;3.35;;;6.00;91.10;;;;;;5002757;28;20210;-73
2022/12/07 12:22:40;;;;;;;2.72;2.17;;;6.00;91.10;;;;;;5008996;28;20585;-73
2022/12/07 12:25:21;;;;;;;4.72;4.03;;;6.00;91.10;;;;;;5007283;28;20202;-73
2022/12/07 12:27:53;;;;;;;8.23;6.63;;;6.00;91.40;;;;;;5020993;28;20296;-73
2022/12/07 12:30:36;;;;;;;8.85;5.18;;;6.00;91.70;;;;;;5005148;28;20195;-72
2022/12/07 12:33:07;;;;;;;5.30;4.80;;;6.00;91.60;;;;;;5009146;28;20276;-73
2022/12/07 12:35:38;;;;;;;5.07;4.57;;;6.00;91.40;;;;;;5011445;28;20288;-75
2022/12/07 12:38:31;;;;;;;5.30;4.00;;;6.00;91.50;;;;;;5011647;28;20241;-73
2022/12/07 12:41:00;;;;;;;5.18;4.47;;;6.00;91.40;;;;;;4994019;28;20222;-74
2022/12/07 12:44:00;;;;;;;5.05;4.43;;;6.00;91.40;;;;;;5017353;28;20226;-73
2022/12/07 12:46:54;;;;;;;6.60;4.03;;;6.00;91.30;;;;;;5017012;28;20370;-73
2022/12/07 12:49:44;;;;;;;4.88;4.35;;;6.00;91.30;;;;;;5015724;28;20300;-74
2022/12/07 12:52:52;;;;;;;5.18;4.03;;;6.00;91.30;;;;;;5005850;28;20301;-73
2022/12/07 12:55:50;;;;;;;4.15;3.67;;;6.00;91.30;;;;;;5013410;28;20197;-73
2022/12/07 12:58:37;;;;;;;5.43;4.30;;;6.00;91.20;;;;;;5022605;28;20234;-73
2022/12/07 13:01:40;;;;;;;5.55;3.38;;;6.00;91.30;;;;;;5010310;28;20312;-73
2022/12/07 13:04:48;;;;;;;6.38;3.72;;;6.00;91.20;;;;;;5019968;28;20216;-73
2022/12/07 13:07:52;;;;;;;4.68;4.15;;;6.00;91.30;;;;;;4977197;28;20243;-73
2022/12/07 13:10:43;;;;;;;5.65;5.10;;;6.00;91.20;;;;;;5013126;28;20743;-70
2022/12/07 13:13:36;;;;;;;5.53;3.70;;;6.00;91.20;;;;;;5011274;28;20458;-70
2022/12/07 13:16:41;;;;;;;4.95;3.90;;;6.00;91.20;;;;;;5000612;28;20284;-70
2022/12/07 13:20:02;;;;;;;4.15;3.75;;;6.00;91.20;;;;;;5004980;28;20228;-69
2022/12/07 13:22:53;;;;;;;4.35;3.95;;;6.00;91.30;;;;;;5022897;28;20200;-70
2022/12/07 13:25:34;;;;;;;4.78;3.53;;;6.00;91.20;;;;;;5018741;28;20194;-69
2022/12/07 13:28:10;;;;;;;4.90;3.85;;;6.00;91.30;;;;;;5010351;28;20320;-73
2022/12/07 13:30:47;;;;;;;4.25;3.85;;;6.00;91.20;;;;;;5005747;28;20363;-73
2022/12/07 13:33:20;;;;;;;4.18;3.75;;;6.00;91.30;;;;;;5016328;28;20267;-73
2022/12/07 13:35:49;;;;;;;6.82;3.78;;;6.00;91.30;;;;;;5020380;28;20703;-73
2022/12/07 13:38:28;;;;;;;4.78;4.20;;;6.00;91.30;;;;;;5009151;28;20530;-73
2022/12/07 13:41:05;;;;;;;3.97;3.58;;;6.00;91.20;;;;;;5019675;28;20213;-74
2022/12/07 13:43:44;;;;;;;3.92;3.63;;;6.00;91.20;;;;;;5018580;28;20294;-73
2022/12/07 13:46:17;;;;;;;4.00;3.08;;;6.00;91.20;;;;;;5020467;28;20596;-72
2022/12/07 13:48:49;;;;;;;4.20;3.63;;;6.00;91.20;;;;;;4999867;28;20229;-73
2022/12/07 13:51:22;;;;;;;6.78;4.20;;;6.00;91.20;;;;;;5021612;28;20201;-75
2022/12/07 13:53:53;;;;;;;4.05;3.65;;;6.00;91.30;;;;;;5021823;28;20252;-73
2022/12/07 13:56:25;;;;;;;5.25;3.88;;;6.00;91.40;;;;;;5023333;28;20307;-74
2022/12/07 13:58:55;;;;;;;4.10;3.70;;;6.00;91.30;;;;;;5018814;28;20320;-73
2022/12/07 14:01:24;;;;;;;5.05;3.45;;;6.00;91.20;;;;;;5005794;28;20309;-73
2022/12/07 14:03:55;;;;;;;5.50;3.25;;;6.00;91.20;;;;;;5020638;28;20308;-74
2022/12/07 14:06:27;;;;;;;6.00;3.42;;;6.00;91.20;;;;;;5008836;28;20717;-73
2022/12/07 14:09:16;;;;;;;3.50;3.00;;;6.00;91.30;;;;;;5012857;28;20220;-73
2022/12/07 14:11:45;;;;;;;5.97;4.22;;;6.00;91.20;;;;;;5006637;28;20717;-73
2022/12/07 14:14:18;;;;;;;4.47;4.07;;;6.00;91.30;;;;;;5005629;28;20697;-73
2022/12/07 14:17:01;;;;;;;4.47;3.63;;;6.00;91.40;;;;;;5005370;28;20632;-72
2022/12/07 14:19:49;;;;;;;4.35;3.88;;;6.00;91.20;;;;;;5009072;28;20674;-73
2022/12/07 14:22:27;;;;;;;3.60;3.15;;;6.00;91.70;;;;;;5009197;28;20236;-74
2022/12/07 14:25:16;;;;;;;4.18;3.88;;;6.00;91.20;;;;;;5006480;28;20797;-72
2022/12/07 14:27:55;;;;;;;4.65;3.38;;;6.00;91.20;;;;;;5003390;28;20217;-73
2022/12/07 14:30:26;;;;;;;4.53;3.55;;;6.00;91.10;;;;;;5014572;28;20200;-73
2022/12/07 14:32:59;;;;;;;3.28;3.05;;;6.00;91.10;;;;;;5029546;28;20201;-72
2022/12/07 14:35:29;;;;;;;5.10;3.00;;;6.00;91.20;;;;;;5029151;28;20197;-74
2022/12/07 14:37:58;;;;;;;4.65;4.00;;;6.00;91.20;;;;;;5005307;28;20232;-73
2022/12/07 14:40:28;;;;;;;3.38;3.05;;;6.00;91.10;;;;;;5004667;28;20295;-73
2022/12/07 14:43:01;;;;;;;3.65;2.65;;;6.00;91.10;;;;;;5009973;28;20666;-72